createdAt,value
2023-03-30T00:00:29.129Z,30.1
2023-03-30T00:01:29.125Z,27.7
2023-03-30T00:02:29.182Z,29.6
2023-03-30T00:03:29.473Z,28.9
2023-03-30T00:04:29.238Z,28.6
2023-03-30T00:05:29.138Z,30.5
2023-03-30T00:06:29.171Z,28.2
2023-03-30T00:07:29.112Z,28.4
2023-03-30T00:08:29.141Z,29.5
2023-03-30T00:09:29.136Z,29.4
2023-03-30T00:10:29.309Z,28.1
2023-03-30T00:11:29.182Z,29.5
2023-03-30T00:12:29.123Z,27.4
2023-03-30T00:13:29.095Z,30.5
2023-03-30T00:14:29.106Z,29.1
2023-03-30T00:15:29.098Z,28.7
2023-03-30T00:16:29.270Z,26.3
2023-03-30T00:17:29.262Z,30.7
2023-03-30T00:18:29.225Z,27.9
2023-03-30T00:19:29.137Z,33.2
2023-03-30T00:20:29.188Z,29.2
2023-03-30T00:21:29.602Z,31.0
2023-03-30T00:22:29.097Z,30.7
2023-03-30T00:23:29.428Z,28.6
2023-03-30T00:24:29.160Z,30.3
2023-03-30T00:25:29.185Z,27.9
2023-03-30T00:26:29.140Z,30.4
2023-03-30T00:27:29.069Z,32.8
2023-03-30T00:28:29.648Z,31.1
2023-03-30T00:29:30.529Z,31.1
2023-03-30T00:30:29.115Z,29.3
2023-03-30T00:31:29.301Z,29.9
2023-03-30T00:32:29.477Z,28.5
2023-03-30T00:33:44.102Z,36.2
2023-03-30T00:34:29.104Z,34.6
2023-03-30T00:35:29.098Z,31.7
2023-03-30T00:36:29.204Z,32.2
2023-03-30T00:37:29.055Z,32.3
2023-03-30T00:38:29.042Z,29.8
2023-03-30T00:39:29.068Z,31.6
2023-03-30T00:40:29.090Z,30.1
2023-03-30T00:41:29.161Z,30.2
2023-03-30T00:42:29.207Z,31.0
2023-03-30T00:43:29.264Z,32.3
2023-03-30T00:44:29.147Z,24.9
2023-03-30T00:45:29.046Z,27.6
2023-03-30T00:46:29.041Z,28.8
2023-03-30T00:47:29.137Z,30.4
2023-03-30T00:48:29.213Z,29.5
2023-03-30T00:49:29.075Z,27.9
2023-03-30T00:50:29.051Z,28.3
2023-03-30T00:51:29.134Z,29.2
2023-03-30T00:52:29.115Z,27.7
2023-03-30T00:53:29.137Z,27.9
2023-03-30T00:54:29.321Z,27.8
2023-03-30T00:55:29.065Z,26.2
2023-03-30T00:56:29.049Z,28.2
2023-03-30T00:57:29.111Z,26.3
2023-03-30T00:58:29.057Z,24.7
2023-03-30T00:59:29.045Z,22.3
2023-03-30T01:00:29.432Z,22.8
2023-03-30T01:01:29.291Z,23.3
2023-03-30T01:02:29.153Z,24.8
2023-03-30T01:03:29.172Z,23.7
2023-03-30T01:04:29.112Z,20.4
2023-03-30T01:05:29.332Z,21.5
2023-03-30T01:06:29.049Z,23.9
2023-03-30T01:07:29.023Z,21.0
2023-03-30T01:08:29.037Z,19.9
2023-03-30T01:09:29.090Z,21.9
2023-03-30T01:10:29.013Z,19.4
2023-03-30T01:11:29.052Z,23.5
2023-03-30T01:12:29.030Z,17.8
2023-03-30T01:13:29.029Z,19.8
2023-03-30T01:14:28.953Z,19.8
2023-03-30T01:15:29.024Z,21.8
2023-03-30T01:16:29.072Z,19.1
2023-03-30T01:17:28.999Z,21.4
2023-03-30T01:18:29.040Z,19.1
2023-03-30T01:19:29.523Z,19.6
2023-03-30T01:20:28.926Z,20.7
2023-03-30T01:21:28.985Z,16.5
2023-03-30T01:22:28.977Z,17.1
2023-03-30T01:23:29.019Z,20.0
2023-03-30T01:24:29.070Z,22.8
2023-03-30T01:25:29.073Z,19.6
2023-03-30T01:26:29.294Z,20.3
2023-03-30T01:27:29.014Z,24.9
2023-03-30T01:28:28.949Z,19.1
2023-03-30T01:29:29.079Z,20.8
2023-03-30T01:30:29.004Z,21.6
2023-03-30T01:31:29.040Z,21.6
2023-03-30T01:32:29.090Z,24.1
2023-03-30T01:33:28.994Z,21.2
2023-03-30T01:34:28.986Z,24.5
2023-03-30T01:35:29.024Z,20.6
2023-03-30T01:36:29.015Z,22.3
2023-03-30T01:37:29.157Z,25.0
2023-03-30T01:38:29.002Z,24.0
2023-03-30T01:39:29.027Z,22.6
2023-03-30T01:40:28.926Z,21.3
2023-03-30T01:41:28.983Z,23.9
2023-03-30T01:42:29.003Z,20.7
2023-03-30T01:43:29.047Z,17.2
2023-03-30T01:44:29.003Z,18.9
2023-03-30T01:45:28.926Z,22.5
2023-03-30T01:46:28.942Z,18.8
2023-03-30T01:47:29.051Z,21.4
2023-03-30T01:48:29.310Z,21.6
2023-03-30T01:49:28.967Z,19.9
2023-03-30T01:50:28.942Z,22.6
2023-03-30T01:51:28.938Z,24.9
2023-03-30T01:52:28.951Z,19.8
2023-03-30T01:53:28.966Z,21.0
2023-03-30T01:54:28.918Z,21.9
2023-03-30T01:55:29.116Z,20.5
2023-03-30T01:56:28.966Z,21.0
2023-03-30T01:57:28.966Z,24.4
2023-03-30T01:58:28.939Z,19.6
2023-03-30T01:59:29.142Z,21.2
2023-03-30T02:00:29.090Z,20.8
2023-03-30T02:01:28.960Z,19.6
2023-03-30T02:02:28.978Z,20.6
2023-03-30T02:03:29.287Z,22.9
2023-03-30T02:04:28.928Z,21.5
2023-03-30T02:05:29.125Z,22.2
2023-03-30T02:06:28.983Z,21.7
2023-03-30T02:07:28.877Z,20.7
2023-03-30T02:08:28.857Z,20.3
2023-03-30T02:09:28.896Z,21.6
2023-03-30T02:10:28.864Z,21.0
2023-03-30T02:11:28.913Z,21.8
2023-03-30T02:12:29.146Z,22.8
2023-03-30T02:13:28.958Z,24.4
2023-03-30T02:14:28.925Z,21.6
2023-03-30T02:15:28.882Z,20.6
2023-03-30T02:16:28.984Z,22.9
2023-03-30T02:17:28.922Z,18.7
2023-03-30T02:18:28.874Z,18.1
2023-03-30T02:19:28.930Z,18.7
2023-03-30T02:20:28.853Z,22.0
2023-03-30T02:21:29.296Z,21.0
2023-03-30T02:22:28.917Z,17.6
2023-03-30T02:23:28.853Z,22.1
2023-03-30T02:24:28.889Z,22.9
2023-03-30T02:25:28.907Z,22.7
2023-03-30T02:26:28.996Z,22.5
2023-03-30T02:27:28.961Z,21.5
2023-03-30T02:28:29.298Z,24.2
2023-03-30T02:29:28.933Z,26.0
2023-03-30T02:30:29.240Z,22.6
2023-03-30T02:31:29.461Z,20.7
2023-03-30T02:32:29.792Z,20.8
2023-03-30T02:33:28.917Z,18.7
2023-03-30T02:34:28.883Z,20.4
2023-03-30T02:35:28.849Z,23.5
2023-03-30T02:36:28.862Z,22.5
2023-03-30T02:37:28.925Z,21.9
2023-03-30T02:38:28.846Z,19.4
2023-03-30T02:39:28.892Z,20.3
2023-03-30T02:40:28.863Z,22.0
2023-03-30T02:41:28.880Z,20.4
2023-03-30T02:42:28.955Z,22.4
2023-03-30T02:43:29.414Z,19.5
2023-03-30T02:44:28.823Z,18.8
2023-03-30T02:45:28.862Z,21.7
2023-03-30T02:46:28.934Z,24.8
2023-03-30T02:47:28.853Z,21.0
2023-03-30T02:48:28.865Z,20.3
2023-03-30T02:49:28.852Z,20.7
2023-03-30T02:50:28.960Z,22.7
2023-03-30T02:51:28.838Z,19.5
2023-03-30T02:52:28.781Z,19.7
2023-03-30T02:53:28.884Z,21.2
2023-03-30T02:54:28.971Z,25.1
2023-03-30T02:55:28.914Z,18.7
2023-03-30T02:56:28.760Z,17.6
2023-03-30T02:57:29.005Z,19.6
2023-03-30T02:58:28.811Z,20.6
2023-03-30T02:59:28.792Z,19.3
2023-03-30T03:00:28.810Z,23.5
2023-03-30T03:01:28.852Z,19.0
2023-03-30T03:02:29.003Z,17.9
2023-03-30T03:03:28.951Z,19.4
2023-03-30T03:04:28.832Z,19.1
2023-03-30T03:05:29.035Z,22.5
2023-03-30T03:06:28.902Z,19.5
2023-03-30T03:07:28.817Z,20.0
2023-03-30T03:08:28.798Z,18.8
2023-03-30T03:09:28.906Z,21.8
2023-03-30T03:10:28.811Z,20.1
2023-03-30T03:11:28.833Z,20.4
2023-03-30T03:12:28.821Z,19.2
2023-03-30T03:13:28.856Z,20.8
2023-03-30T03:14:28.797Z,17.4
2023-03-30T03:15:28.842Z,21.6
2023-03-30T03:16:29.069Z,17.7
2023-03-30T03:17:28.813Z,18.3
2023-03-30T03:18:28.909Z,22.7
2023-03-30T03:19:28.794Z,19.0
2023-03-30T03:20:28.792Z,19.9
2023-03-30T03:21:28.822Z,19.2
2023-03-30T03:22:28.788Z,22.1
2023-03-30T03:23:28.855Z,20.8
2023-03-30T03:24:28.938Z,21.1
2023-03-30T03:25:28.792Z,21.4
2023-03-30T03:26:28.791Z,19.4
2023-03-30T03:27:29.156Z,21.1
2023-03-30T03:28:28.785Z,21.1
2023-03-30T03:29:28.832Z,18.4
2023-03-30T03:30:28.803Z,26.1
2023-03-30T03:31:28.862Z,24.4
2023-03-30T03:32:28.798Z,22.9
2023-03-30T03:33:28.789Z,18.0
2023-03-30T03:34:28.762Z,19.7
2023-03-30T03:35:28.775Z,18.5
2023-03-30T03:36:28.847Z,25.6
2023-03-30T03:37:28.792Z,22.8
2023-03-30T03:38:28.918Z,21.8
2023-03-30T03:39:28.768Z,22.2
2023-03-30T03:40:28.883Z,21.0
2023-03-30T03:41:28.700Z,20.1
2023-03-30T03:42:28.831Z,19.8
2023-03-30T03:43:28.756Z,22.4
2023-03-30T03:44:28.817Z,19.1
2023-03-30T03:45:28.773Z,18.5
2023-03-30T03:46:28.821Z,22.9
2023-03-30T03:47:28.778Z,19.3
2023-03-30T03:48:28.742Z,18.7
2023-03-30T03:49:28.904Z,19.9
2023-03-30T03:50:28.812Z,21.2
2023-03-30T03:51:28.787Z,18.3
2023-03-30T03:52:28.792Z,20.1
2023-03-30T03:53:28.715Z,18.3
2023-03-30T03:54:28.822Z,20.4
2023-03-30T03:55:28.704Z,19.1
2023-03-30T03:56:28.830Z,19.3
2023-03-30T03:57:28.757Z,19.8
2023-03-30T03:58:28.701Z,20.7
2023-03-30T03:59:28.822Z,20.1
2023-03-30T04:00:29.042Z,19.0
2023-03-30T04:01:28.735Z,20.4
2023-03-30T04:02:28.804Z,17.0
2023-03-30T04:03:28.685Z,20.4
2023-03-30T04:04:28.734Z,18.9
2023-03-30T04:05:28.824Z,18.2
2023-03-30T04:06:28.704Z,18.3
2023-03-30T04:07:28.695Z,22.2
2023-03-30T04:08:28.727Z,19.7
2023-03-30T04:09:28.662Z,24.0
2023-03-30T04:10:28.667Z,17.7
2023-03-30T04:11:28.988Z,18.2
2023-03-30T04:12:28.693Z,19.0
2023-03-30T04:13:28.736Z,20.3
2023-03-30T04:14:28.701Z,18.7
2023-03-30T04:15:28.672Z,20.5
2023-03-30T04:16:28.823Z,19.0
2023-03-30T04:17:28.778Z,19.7
2023-03-30T04:18:28.659Z,21.5
2023-03-30T04:19:29.098Z,18.6
2023-03-30T04:20:28.668Z,21.6
2023-03-30T04:21:28.610Z,18.5
2023-03-30T04:22:29.014Z,18.5
2023-03-30T04:23:28.675Z,19.0
2023-03-30T04:24:28.671Z,22.6
2023-03-30T04:25:28.649Z,22.8
2023-03-30T04:26:28.958Z,23.7
2023-03-30T04:27:28.636Z,21.5
2023-03-30T04:28:28.640Z,22.4
2023-03-30T04:29:28.625Z,23.2
2023-03-30T04:30:28.640Z,22.5
2023-03-30T04:31:28.700Z,24.6
2023-03-30T04:32:28.717Z,24.3
2023-03-30T04:33:28.790Z,23.3
2023-03-30T04:34:28.653Z,24.5
2023-03-30T04:35:28.654Z,25.5
2023-03-30T04:36:28.696Z,22.9
2023-03-30T04:37:28.910Z,29.3
2023-03-30T04:38:28.633Z,25.5
2023-03-30T04:39:28.663Z,22.1
2023-03-30T04:40:29.989Z,23.5
2023-03-30T04:41:28.660Z,27.4
2023-03-30T04:42:28.635Z,26.0
2023-03-30T04:43:28.627Z,22.5
2023-03-30T04:44:28.739Z,24.6
2023-03-30T04:45:28.650Z,18.8
2023-03-30T04:46:28.633Z,19.6
2023-03-30T04:47:28.667Z,26.9
2023-03-30T04:48:28.621Z,22.3
2023-03-30T04:49:28.591Z,22.0
2023-03-30T04:50:28.620Z,27.7
2023-03-30T04:51:28.635Z,24.8
2023-03-30T04:52:28.604Z,31.5
2023-03-30T04:53:28.626Z,22.3
2023-03-30T04:54:29.257Z,26.1
2023-03-30T04:55:28.869Z,28.1
2023-03-30T04:56:28.587Z,24.5
2023-03-30T04:57:28.668Z,27.7
2023-03-30T04:58:28.576Z,27.1
2023-03-30T04:59:28.562Z,25.7
2023-03-30T05:00:28.690Z,25.0
2023-03-30T05:01:28.686Z,27.3
2023-03-30T05:02:28.774Z,22.1
2023-03-30T05:03:28.759Z,25.7
2023-03-30T05:04:28.569Z,23.3
2023-03-30T05:05:28.610Z,25.4
2023-03-30T05:06:28.670Z,26.9
2023-03-30T05:07:28.611Z,24.9
2023-03-30T05:08:28.606Z,24.8
2023-03-30T05:09:28.984Z,23.6
2023-03-30T05:10:28.627Z,25.5
2023-03-30T05:11:28.560Z,25.7
2023-03-30T05:12:28.601Z,32.4
2023-03-30T05:13:28.558Z,32.4
2023-03-30T05:14:28.523Z,31.6
2023-03-30T05:15:28.671Z,28.4
2023-03-30T05:16:28.611Z,28.7
2023-03-30T05:17:28.728Z,29.4
2023-03-30T05:18:28.659Z,30.6
2023-03-30T05:19:28.554Z,31.2
2023-03-30T05:20:28.628Z,32.8
2023-03-30T05:21:28.722Z,33.1
2023-03-30T05:22:28.608Z,28.9
2023-03-30T05:23:28.606Z,28.7
2023-03-30T05:24:28.605Z,27.5
2023-03-30T05:25:28.538Z,29.8
2023-03-30T05:26:28.624Z,23.5
2023-03-30T05:27:28.533Z,22.6
2023-03-30T05:28:31.112Z,22.9
2023-03-30T05:29:28.601Z,28.0
2023-03-30T05:30:28.558Z,24.8
2023-03-30T05:31:29.134Z,24.8
2023-03-30T05:32:28.675Z,28.8
2023-03-30T05:33:28.536Z,27.1
2023-03-30T05:34:28.580Z,32.9
2023-03-30T05:35:28.532Z,28.6
2023-03-30T05:36:28.583Z,26.9
2023-03-30T05:37:28.529Z,27.5
2023-03-30T05:38:28.537Z,25.0
2023-03-30T05:39:28.908Z,23.7
2023-03-30T05:40:28.532Z,25.6
2023-03-30T05:41:28.470Z,27.9
2023-03-30T05:42:28.545Z,31.8
2023-03-30T05:43:28.475Z,28.4
2023-03-30T05:44:28.503Z,27.8
2023-03-30T05:45:28.565Z,30.8
2023-03-30T05:46:28.518Z,27.2
2023-03-30T05:47:28.526Z,25.2
2023-03-30T05:48:28.473Z,25.2
2023-03-30T05:49:28.546Z,27.6
2023-03-30T05:50:28.866Z,22.4
2023-03-30T05:51:28.532Z,22.3
2023-03-30T05:52:28.545Z,23.5
2023-03-30T05:53:28.478Z,23.7
2023-03-30T05:54:28.503Z,24.8
2023-03-30T05:55:28.535Z,22.8
2023-03-30T05:56:28.474Z,21.1
2023-03-30T05:57:28.635Z,23.9
2023-03-30T05:58:28.501Z,24.3
2023-03-30T05:59:28.553Z,24.6
2023-03-30T06:00:28.590Z,19.1
2023-03-30T06:01:28.644Z,21.1
2023-03-30T06:02:28.643Z,19.0
2023-03-30T06:03:28.577Z,20.1
2023-03-30T06:04:28.656Z,22.1
2023-03-30T06:05:28.465Z,21.0
2023-03-30T06:06:28.495Z,18.7
2023-03-30T06:07:28.479Z,20.7
2023-03-30T06:08:28.469Z,23.1
2023-03-30T06:09:28.568Z,24.1
2023-03-30T06:10:28.568Z,19.7
2023-03-30T06:11:28.506Z,23.7
2023-03-30T06:12:28.422Z,22.5
2023-03-30T06:13:28.459Z,26.3
2023-03-30T06:14:28.558Z,20.0
2023-03-30T06:15:35.623Z,22.2
2023-03-30T06:16:28.594Z,23.0
2023-03-30T06:17:28.506Z,20.8
2023-03-30T06:18:28.431Z,24.8
2023-03-30T06:19:28.520Z,21.7
2023-03-30T06:20:28.497Z,21.0
2023-03-30T06:21:28.458Z,23.6
2023-03-30T06:22:31.273Z,22.4
2023-03-30T06:23:28.589Z,22.3
2023-03-30T06:24:28.482Z,20.0
2023-03-30T06:25:28.414Z,22.2
2023-03-30T06:26:28.504Z,23.6
2023-03-30T06:27:28.491Z,22.2
2023-03-30T06:28:28.423Z,25.2
2023-03-30T06:29:28.471Z,21.6
2023-03-30T06:30:28.505Z,22.0
2023-03-30T06:31:28.437Z,25.0
2023-03-30T06:32:28.464Z,24.4
2023-03-30T06:33:28.414Z,21.2
2023-03-30T06:34:28.578Z,21.0
2023-03-30T06:35:28.464Z,22.6
2023-03-30T06:36:44.545Z,22.6
2023-03-30T06:37:28.428Z,25.2
2023-03-30T06:38:28.471Z,19.8
2023-03-30T06:39:28.433Z,22.1
2023-03-30T06:40:28.410Z,19.8
2023-03-30T06:41:28.470Z,21.0
2023-03-30T06:42:28.478Z,19.0
2023-03-30T06:43:28.445Z,22.3
2023-03-30T06:44:28.439Z,20.8
2023-03-30T06:45:28.418Z,20.0
2023-03-30T06:46:28.593Z,20.6
2023-03-30T06:47:28.575Z,19.4
2023-03-30T06:48:28.469Z,18.4
2023-03-30T06:49:28.420Z,20.7
2023-03-30T06:50:28.378Z,19.8
2023-03-30T06:51:28.632Z,23.7
2023-03-30T06:52:28.383Z,16.7
2023-03-30T06:53:28.350Z,18.1
2023-03-30T06:54:28.393Z,24.9
2023-03-30T06:55:28.388Z,19.4
2023-03-30T06:56:28.540Z,20.3
2023-03-30T06:57:28.606Z,25.0
2023-03-30T06:58:28.415Z,18.6
2023-03-30T06:59:28.506Z,19.6
2023-03-30T07:00:28.360Z,25.5
2023-03-30T07:01:28.520Z,21.5
2023-03-30T07:02:28.351Z,22.1
2023-03-30T07:03:28.413Z,17.7
2023-03-30T07:04:28.505Z,21.8
2023-03-30T07:05:28.365Z,18.0
2023-03-30T07:06:28.409Z,15.8
2023-03-30T07:07:28.382Z,19.9
2023-03-30T07:08:28.552Z,18.5
2023-03-30T07:09:28.476Z,18.0
2023-03-30T07:10:28.378Z,17.5
2023-03-30T07:11:28.419Z,20.2
2023-03-30T07:12:28.345Z,14.4
2023-03-30T07:13:28.319Z,16.1
2023-03-30T07:14:28.391Z,18.8
2023-03-30T07:15:28.486Z,17.9
2023-03-30T07:16:28.384Z,19.4
2023-03-30T07:17:28.474Z,18.7
2023-03-30T07:18:28.621Z,16.7
2023-03-30T07:19:28.707Z,17.5
2023-03-30T07:20:28.437Z,20.3
2023-03-30T07:21:28.588Z,16.4
2023-03-30T07:22:28.462Z,17.2
2023-03-30T07:23:28.324Z,16.9
2023-03-30T07:24:28.699Z,21.6
2023-03-30T07:25:28.332Z,16.5
2023-03-30T07:26:28.400Z,20.6
2023-03-30T07:27:28.396Z,19.1
2023-03-30T07:28:28.403Z,19.5
2023-03-30T07:29:28.574Z,20.4
2023-03-30T07:30:28.331Z,20.1
2023-03-30T07:31:28.532Z,21.9
2023-03-30T07:32:28.549Z,19.1
2023-03-30T07:33:28.998Z,19.1
2023-03-30T07:34:29.118Z,18.2
2023-03-30T07:35:28.594Z,17.8
2023-03-30T07:36:29.148Z,21.2
2023-03-30T07:37:28.341Z,19.5
2023-03-30T07:38:28.370Z,20.6
2023-03-30T07:39:28.417Z,19.7
2023-03-30T07:40:28.538Z,21.1
2023-03-30T07:41:28.651Z,18.2
2023-03-30T07:42:28.406Z,16.6
2023-03-30T07:43:28.470Z,22.2
2023-03-30T07:44:28.550Z,17.5
2023-03-30T07:45:28.482Z,20.7
2023-03-30T07:46:28.355Z,20.5
2023-03-30T07:47:28.378Z,18.5
2023-03-30T07:48:51.151Z,20.3
2023-03-30T07:49:28.277Z,16.9
2023-03-30T07:50:28.546Z,15.4
2023-03-30T07:51:28.303Z,17.8
2023-03-30T07:52:28.506Z,18.9
2023-03-30T07:53:28.296Z,20.2
2023-03-30T07:54:28.343Z,19.5
2023-03-30T07:55:28.283Z,17.6
2023-03-30T07:56:28.251Z,17.1
2023-03-30T07:57:28.479Z,18.2
2023-03-30T07:58:28.340Z,17.8
2023-03-30T07:59:28.424Z,17.6
2023-03-30T08:00:28.506Z,17.4
2023-03-30T08:01:28.429Z,20.2
2023-03-30T08:02:28.426Z,17.9
2023-03-30T08:03:28.680Z,17.6
2023-03-30T08:04:28.331Z,15.5
2023-03-30T08:05:28.300Z,20.9
2023-03-30T08:06:28.294Z,20.4
2023-03-30T08:07:28.273Z,16.6
2023-03-30T08:08:28.265Z,16.2
2023-03-30T08:09:28.249Z,20.0
2023-03-30T08:10:28.323Z,20.5
2023-03-30T08:11:28.340Z,20.1
2023-03-30T08:12:28.288Z,22.7
2023-03-30T08:13:28.300Z,17.4
2023-03-30T08:14:28.472Z,20.3
2023-03-30T08:15:28.293Z,16.8
2023-03-30T08:16:28.543Z,19.9
2023-03-30T08:17:28.331Z,15.8
2023-03-30T08:18:29.213Z,18.0
2023-03-30T08:19:28.396Z,18.1
2023-03-30T08:20:28.293Z,17.3
2023-03-30T08:21:28.454Z,20.4
2023-03-30T08:22:28.406Z,15.0
2023-03-30T08:23:28.393Z,16.3
2023-03-30T08:24:28.316Z,13.4
2023-03-30T08:25:28.385Z,15.7
2023-03-30T08:26:28.395Z,14.4
2023-03-30T08:27:28.355Z,11.5
2023-03-30T08:28:28.424Z,12.4
2023-03-30T08:29:28.212Z,9.4
2023-03-30T08:30:29.489Z,10.8
2023-03-30T08:31:28.400Z,8.4
2023-03-30T08:32:28.424Z,9.1
2023-03-30T08:33:28.203Z,9.7
2023-03-30T08:34:28.259Z,9.9
2023-03-30T08:35:28.306Z,11.0
2023-03-30T08:36:28.414Z,11.0
2023-03-30T08:37:28.359Z,8.5
2023-03-30T08:38:28.216Z,8.6
2023-03-30T08:39:28.225Z,8.0
2023-03-30T08:40:28.281Z,10.1
2023-03-30T08:41:28.194Z,8.7
2023-03-30T08:42:28.365Z,8.9
2023-03-30T08:43:28.288Z,8.2
2023-03-30T08:44:28.840Z,9.0
2023-03-30T08:45:28.288Z,7.3
2023-03-30T08:46:28.248Z,8.1
2023-03-30T08:47:28.273Z,10.0
2023-03-30T08:48:28.221Z,12.2
2023-03-30T08:49:28.326Z,11.9
2023-03-30T08:50:28.242Z,9.3
2023-03-30T08:51:28.233Z,8.3
2023-03-30T08:52:28.235Z,12.9
2023-03-30T08:53:28.227Z,7.4
2023-03-30T08:54:28.214Z,8.8
2023-03-30T08:55:28.232Z,7.9
2023-03-30T08:56:28.350Z,7.1
2023-03-30T08:57:28.324Z,6.5
2023-03-30T08:58:28.383Z,10.4
2023-03-30T08:59:28.471Z,9.0
2023-03-30T09:00:28.195Z,7.2
2023-03-30T09:01:28.388Z,9.3
2023-03-30T09:02:28.251Z,9.9
2023-03-30T09:03:28.542Z,7.0
2023-03-30T09:04:28.531Z,9.4
2023-03-30T09:05:28.376Z,9.7
2023-03-30T09:06:28.324Z,6.7
2023-03-30T09:07:28.266Z,8.9
2023-03-30T09:08:28.300Z,6.3
2023-03-30T09:09:29.039Z,7.9
2023-03-30T09:10:28.218Z,11.2
2023-03-30T09:11:28.251Z,12.1
2023-03-30T09:12:28.237Z,10.0
2023-03-30T09:13:28.217Z,8.3
2023-03-30T09:14:28.207Z,7.2
2023-03-30T09:15:29.665Z,7.0
2023-03-30T09:16:28.254Z,8.5
2023-03-30T09:17:28.273Z,5.8
2023-03-30T09:18:28.241Z,11.7
2023-03-30T09:19:28.260Z,9.4
2023-03-30T09:20:28.127Z,6.8
2023-03-30T09:21:28.208Z,9.8
2023-03-30T09:22:28.144Z,9.6
2023-03-30T09:26:28.427Z,7.7
2023-03-30T09:27:28.182Z,6.1
2023-03-30T09:28:28.137Z,7.9
2023-03-30T09:29:28.140Z,7.0
2023-03-30T09:30:28.109Z,9.2
2023-03-30T09:31:28.498Z,7.7
2023-03-30T09:32:28.172Z,10.2
2023-03-30T09:33:28.108Z,7.8
2023-03-30T09:34:28.207Z,6.3
2023-03-30T09:35:28.270Z,8.4
2023-03-30T09:36:28.321Z,6.1
2023-03-30T09:37:28.108Z,7.7
2023-03-30T09:38:28.142Z,7.5
2023-03-30T09:39:28.124Z,9.0
2023-03-30T09:40:28.097Z,9.6
2023-03-30T09:41:28.224Z,8.1
2023-03-30T09:42:28.424Z,7.1
2023-03-30T09:43:28.347Z,7.2
2023-03-30T09:44:28.118Z,7.0
2023-03-30T09:45:28.129Z,7.6
2023-03-30T09:46:28.221Z,7.2
2023-03-30T09:47:28.305Z,11.1
2023-03-30T09:48:28.196Z,7.9
2023-03-30T09:49:28.182Z,7.8
2023-03-30T09:50:28.130Z,8.2
2023-03-30T09:51:30.704Z,6.4
2023-03-30T09:52:28.183Z,7.7
2023-03-30T09:53:28.722Z,9.5
2023-03-30T09:54:28.067Z,8.0
2023-03-30T09:55:28.155Z,8.0
2023-03-30T09:56:28.266Z,7.4
2023-03-30T09:57:28.165Z,11.2
2023-03-30T09:58:28.156Z,8.2
2023-03-30T09:59:28.060Z,10.0
2023-03-30T10:00:28.359Z,14.9
2023-03-30T10:01:28.268Z,8.1
2023-03-30T10:02:28.299Z,9.9
2023-03-30T10:03:28.171Z,9.6
2023-03-30T10:04:28.145Z,9.2
2023-03-30T10:05:28.285Z,8.6
2023-03-30T10:06:28.204Z,7.7
2023-03-30T10:07:28.150Z,7.6
2023-03-30T10:08:28.070Z,10.1
2023-03-30T10:09:28.422Z,8.7
2023-03-30T10:10:28.123Z,8.1
2023-03-30T10:11:28.137Z,6.8
2023-03-30T10:12:28.107Z,8.7
2023-03-30T10:13:28.081Z,7.8
2023-03-30T10:14:28.906Z,7.7
2023-03-30T10:15:28.099Z,9.8
2023-03-30T10:16:28.413Z,9.2
2023-03-30T10:17:28.119Z,8.4
2023-03-30T10:18:28.145Z,8.4
2023-03-30T10:19:29.191Z,10.7
2023-03-30T10:20:28.076Z,7.3
2023-03-30T10:21:28.067Z,9.9
2023-03-30T10:22:28.042Z,12.9
2023-03-30T10:23:28.156Z,9.8
2023-03-30T10:24:28.094Z,8.8
2023-03-30T10:25:28.170Z,11.2
2023-03-30T10:26:28.200Z,10.8
2023-03-30T10:27:28.249Z,11.8
2023-03-30T10:28:28.062Z,9.9
2023-03-30T10:29:28.065Z,7.3
2023-03-30T10:30:28.128Z,9.4
2023-03-30T10:31:28.473Z,7.9
2023-03-30T10:32:28.236Z,8.7
2023-03-30T10:33:28.148Z,10.4
2023-03-30T10:34:28.049Z,10.1
2023-03-30T10:35:28.193Z,9.0
2023-03-30T10:36:28.210Z,7.5
2023-03-30T10:37:28.068Z,11.5
2023-03-30T10:38:28.052Z,7.2
2023-03-30T10:39:28.408Z,9.1
2023-03-30T10:40:28.082Z,8.9
2023-03-30T10:41:28.199Z,7.1
2023-03-30T10:42:28.046Z,8.1
2023-03-30T10:43:28.030Z,12.2
2023-03-30T10:44:28.286Z,8.9
2023-03-30T10:45:28.067Z,8.1
2023-03-30T10:46:28.551Z,8.7
2023-03-30T10:48:28.140Z,9.9
2023-03-30T10:49:28.077Z,10.5
2023-03-30T10:50:28.242Z,8.5
2023-03-30T10:51:28.077Z,8.0
2023-03-30T10:52:28.206Z,9.3
2023-03-30T10:53:28.339Z,14.5
2023-03-30T10:54:27.974Z,9.4
2023-03-30T10:55:27.977Z,9.2
2023-03-30T10:56:28.038Z,10.6
2023-03-30T10:57:28.182Z,7.6
2023-03-30T10:58:28.036Z,8.6
2023-03-30T10:59:28.123Z,6.5
2023-03-30T11:00:28.006Z,8.6
2023-03-30T11:01:28.415Z,7.0
2023-03-30T11:02:28.101Z,6.2
2023-03-30T11:03:28.807Z,7.5
2023-03-30T11:04:28.148Z,7.2
2023-03-30T11:05:29.796Z,7.5
2023-03-30T11:06:28.059Z,5.8
2023-03-30T11:07:27.981Z,6.6
2023-03-30T11:08:28.220Z,7.8
2023-03-30T11:09:28.289Z,7.3
2023-03-30T11:10:28.008Z,6.7
2023-03-30T11:11:28.043Z,6.6
2023-03-30T11:12:28.287Z,7.7
2023-03-30T11:13:28.118Z,6.8
2023-03-30T11:14:28.011Z,7.8
2023-03-30T11:15:28.183Z,5.9
2023-03-30T11:16:28.055Z,7.1
2023-03-30T11:17:28.060Z,6.5
2023-03-30T11:18:27.949Z,7.7
2023-03-30T11:19:27.982Z,7.3
2023-03-30T11:20:28.193Z,5.0
2023-03-30T11:21:28.014Z,5.8
2023-03-30T11:22:28.006Z,6.6
2023-03-30T11:23:27.995Z,7.5
2023-03-30T11:24:28.049Z,8.7
2023-03-30T11:25:28.111Z,7.8
2023-03-30T11:26:28.163Z,7.6
2023-03-30T11:27:27.940Z,9.8
2023-03-30T11:28:28.005Z,6.2
2023-03-30T11:29:28.022Z,6.8
2023-03-30T11:30:27.958Z,6.2
2023-03-30T11:31:28.115Z,7.6
2023-03-30T11:32:28.116Z,8.7
2023-03-30T11:33:28.136Z,9.4
2023-03-30T11:34:28.392Z,8.1
2023-03-30T11:35:27.985Z,9.6
2023-03-30T11:36:27.961Z,9.6
2023-03-30T11:37:28.058Z,9.8
2023-03-30T11:38:28.017Z,8.4
2023-03-30T11:39:32.096Z,10.9
2023-03-30T11:40:27.985Z,10.6
2023-03-30T11:41:27.985Z,7.3
2023-03-30T11:42:28.061Z,5.7
2023-03-30T11:43:28.071Z,6.5
2023-03-30T11:44:28.492Z,8.2
2023-03-30T11:45:28.023Z,7.4
2023-03-30T11:46:28.029Z,5.8
2023-03-30T11:47:28.201Z,9.6
2023-03-30T11:48:27.930Z,8.3
2023-03-30T11:49:28.355Z,7.0
2023-03-30T11:50:28.016Z,9.8
2023-03-30T11:51:27.973Z,11.4
2023-03-30T11:52:27.992Z,8.0
2023-03-30T11:53:28.086Z,8.9
2023-03-30T11:54:27.984Z,9.1
2023-03-30T11:55:28.207Z,9.4
2023-03-30T11:56:28.008Z,8.2
2023-03-30T11:57:28.151Z,8.5
2023-03-30T11:58:27.929Z,8.3
2023-03-30T11:59:27.970Z,10.7
2023-03-30T12:00:28.043Z,7.6
2023-03-30T12:01:33.148Z,10.5
2023-03-30T12:02:28.488Z,9.0
2023-03-30T12:03:28.327Z,8.4
2023-03-30T12:04:28.002Z,14.3
2023-03-30T12:05:27.956Z,9.2
2023-03-30T12:06:28.198Z,8.7
2023-03-30T12:07:27.963Z,14.3
2023-03-30T12:08:27.934Z,12.6
2023-03-30T12:09:27.935Z,14.7
2023-03-30T12:10:27.935Z,16.1
2023-03-30T12:11:28.222Z,11.5
2023-03-30T12:12:27.939Z,8.5
2023-03-30T12:13:30.542Z,8.9
2023-03-30T12:14:27.934Z,9.4
2023-03-30T12:15:27.907Z,5.7
2023-03-30T12:16:28.464Z,10.1
2023-03-30T12:17:28.339Z,8.5
2023-03-30T12:18:27.973Z,9.4
2023-03-30T12:19:28.073Z,8.7
2023-03-30T12:20:27.901Z,8.9
2023-03-30T12:21:27.938Z,8.9
2023-03-30T12:22:27.972Z,12.6
2023-03-30T12:23:27.915Z,8.1
2023-03-30T12:24:27.888Z,10.2
2023-03-30T12:25:27.907Z,9.2
2023-03-30T12:26:27.947Z,7.7
2023-03-30T12:27:27.943Z,16.8
2023-03-30T12:28:35.830Z,15.3
2023-03-30T12:30:27.901Z,16.3
2023-03-30T12:31:28.081Z,13.6
2023-03-30T12:32:29.013Z,8.8
2023-03-30T12:33:28.006Z,10.3
2023-03-30T12:34:27.893Z,8.2
2023-03-30T12:35:27.910Z,11.0
2023-03-30T12:36:27.927Z,13.5
2023-03-30T12:37:28.119Z,11.2
2023-03-30T12:38:27.889Z,11.3
2023-03-30T12:39:28.429Z,10.2
2023-03-30T12:40:28.920Z,15.5
2023-03-30T12:41:28.572Z,9.9
2023-03-30T12:42:28.164Z,9.4
2023-03-30T12:43:27.860Z,10.4
2023-03-30T12:44:27.857Z,11.2
2023-03-30T12:45:28.121Z,9.3
2023-03-30T12:46:28.100Z,10.5
2023-03-30T12:47:28.064Z,9.1
2023-03-30T12:48:27.910Z,10.8
2023-03-30T12:49:27.906Z,8.6
2023-03-30T12:50:27.855Z,9.3
2023-03-30T12:51:27.922Z,7.4
2023-03-30T12:52:27.823Z,10.6
2023-03-30T12:53:28.082Z,10.8
2023-03-30T12:54:27.859Z,12.6
2023-03-30T12:55:27.844Z,8.8
2023-03-30T12:56:27.885Z,15.2
2023-03-30T12:57:28.067Z,16.7
2023-03-30T12:58:27.892Z,10.8
2023-03-30T12:59:27.801Z,9.9
2023-03-30T13:00:27.835Z,11.9
2023-03-30T13:01:28.118Z,9.2
2023-03-30T13:02:27.967Z,8.2
2023-03-30T13:03:28.100Z,8.1
2023-03-30T13:04:27.969Z,7.2
2023-03-30T13:05:27.958Z,7.8
2023-03-30T13:06:27.812Z,10.4
2023-03-30T13:07:27.924Z,9.6
2023-03-30T13:08:27.864Z,7.9
2023-03-30T13:09:27.887Z,9.2
2023-03-30T13:10:27.948Z,11.2
2023-03-30T13:11:28.033Z,13.6
2023-03-30T13:12:28.097Z,9.7
2023-03-30T13:13:27.842Z,8.0
2023-03-30T13:14:27.835Z,9.2
2023-03-30T13:15:27.854Z,8.8
2023-03-30T13:16:27.929Z,10.8
2023-03-30T13:17:27.979Z,10.6
2023-03-30T13:18:27.805Z,10.9
2023-03-30T13:19:28.133Z,14.5
2023-03-30T13:20:30.468Z,17.1
2023-03-30T13:21:27.831Z,14.6
2023-03-30T13:22:27.947Z,12.7
2023-03-30T13:23:28.093Z,12.0
2023-03-30T13:24:27.810Z,12.8
2023-03-30T13:25:27.814Z,12.5
2023-03-30T13:26:34.616Z,15.9
2023-03-30T13:27:27.785Z,8.9
2023-03-30T13:28:28.028Z,8.7
2023-03-30T13:29:27.794Z,12.6
2023-03-30T13:30:27.839Z,14.0